Informationen zur Loipe auf der Atzenberger Höhe
 
22.01.2019Höhe
ü. NN
ZeitTemperatur (°C)Nieder-
schlag
Luft-
feuchte
Luft-
druck
Wind
StationaktuellMinimumMaximumaktuellMaximum
Aldingen654 m11:06-2,9-3,7 (01:05)-2,6 (15:06)0,0 l/m²90%1014,09,3 km/h (2 Bft) O-SO16,7 km/h (3 Bft) SO (10:31)
Allmannsweiler625 m11:05-3,7-4,6 (02:25)-3,5 (06:00)0,0 l/m²96%1013,411,3 km/h (2 Bft) W-SW14,5 km/h (3 Bft) SW (02:25)
Allmendingen541 m11:05-2,7-5,0 (02:00)-2,7 (14:10)0,0 l/m²92%1013,53,2 km/h (1 Bft) S11,3 km/h (2 Bft) N-NO (23:35)
Altshausen574 m11:05-2,9-3,6 (01:29)-2,9 (05:35)0,0 l/m²90%1009,59,7 km/h (2 Bft) SW12,9 km/h (3 Bft) SW (04:45)
Amstetten-Reutti663 m11:05-4,0-7,8 (06:35)-4,0 (13:55)0,0 l/m²96%1013,612,9 km/h (3 Bft) SO20,9 km/h (4 Bft) SO (10:55)
Amtzell-Grenis677 m11:05-4,1-4,3 (09:35)-3,7 (04:25)0,0 l/m²84%1015,06,4 km/h (2 Bft) SW12,9 km/h (3 Bft) W-NW (01:45)
Aulendorf570 m11:06-3,2-3,5 (02:56)-2,8 (05:01)0,0 l/m²85%1013,26,4 km/h (2 Bft) S11,3 km/h (2 Bft) SW (02:32)
Bad Krozingen233 m11:050,6-1,9 (03:00)0,6 (11:05)0,0 l/m²83%1014,214,8 km/h (3 Bft) SW14,8 km/h (3 Bft) SW (11:05)
Bad Saulgau595 m11:05-3,0-3,8 (01:15)-2,8 (15:50)0,0 l/m²91%1012,78,0 km/h (2 Bft) NO12,9 km/h (3 Bft) N-NO (02:05)
Bad Saulgau-Lampertsweiler627 m11:05-3,5-4,4 (01:30)-3,3 (07:20)0,0 l/m²90%1015,911,3 km/h (2 Bft) S-SW14,5 km/h (3 Bft) SO (10:00)
Bad Schussenried572 m11:05-3,2-3,6 (02:05)-3,1 (00:00)0,0 l/m²95%1012,00,0 km/h (0 Bft) W-NW9,7 km/h (2 Bft) N (02:55)
Bergatreute615 m11:05-2,6-3,3 (00:05)-2,6 (11:00)0,0 l/m²93%1013,51,6 km/h (1 Bft) S-SW9,7 km/h (2 Bft) S-SW (03:05)
Biberach (Riss), Boehringer533 m11:00-3,4-4,0 (05:10)-2,9 (10:30)0,2 l/m²93%1012,55,8 km/h (2 Bft) S17,3 km/h (3 Bft) SW (03:40)
Biberach (Riss), Realschule553 m11:05-3,9-4,3 (05:10)-3,3 (00:00)0,0 l/m²94%1014,89,7 km/h (2 Bft) S17,7 km/h (3 Bft) W (03:25)
Bodnegg-Rotheidlen677 m11:05-3,7-4,2 (00:00)-3,6 (10:55)0,0 l/m²91%1013,70,0 km/h (0 Bft) W-SW9,7 km/h (2 Bft) S-SW (09:20)
Burgrieden523 m11:05-3,8-4,4 (04:50)-3,2 (00:00)0,0 l/m²90%1013,88,0 km/h (2 Bft) S16,1 km/h (3 Bft) W-SW (03:30)
Burgrieden-Hochstetten510 m11:05-3,1-4,0 (04:40)-2,7 (12:20)0,0 l/m²91%1013,98,0 km/h (2 Bft) S14,5 km/h (3 Bft) N (15:25)
Donauwörth411 m11:05-3,7-4,7 (05:35)-3,3 (00:00)0,0 l/m²89%1014,514,5 km/h (3 Bft) O-SO16,1 km/h (3 Bft) W (01:35)
Ebersbach579 m11:05-3,3-3,9 (02:20)-3,0 (05:35)0,0 l/m²96%1014,43,2 km/h (1 Bft) S-SO11,3 km/h (2 Bft) SO (02:35)
Ebersbach-Boos605 m11:05-3,6-4,3 (02:00)-3,4 (05:25)0,0 l/m²96%1014,20,0 km/h (0 Bft) S0,0 km/h (0 Bft) NO (00:00)
Ebersbach-Menzenweiler661 m11:05-3,8-4,5 (01:50)-3,7 (05:20)0,0 l/m²98%1014,39,7 km/h (2 Bft) S-SW12,9 km/h (3 Bft) S-SW (02:45)
Ehingen535 m11:05-2,5-4,5 (02:20)-2,5 (11:05)0,0 l/m²89%1013,83,8 km/h (1 Bft) O-SO16,9 km/h (3 Bft) O-SO (03:30)
Erlenmoos645 m11:05-3,2-4,7 (02:30)-3,1 (10:40)0,0 l/m²68%1013,70,0 km/h (0 Bft) S-SO0,0 km/h (0 Bft) W (00:00)
Ertingen569 m11:05-2,4-3,7 (01:00)-2,4 (11:00)0,0 l/m²92%1013,46,4 km/h (2 Bft) O8,0 km/h (2 Bft) SO (05:05)
Friedrichshafen405 m11:05-0,8-1,3 (21:10)-0,8 (14:30)0,0 l/m²86%1014,03,2 km/h (1 Bft) O-NO12,9 km/h (3 Bft) N-NO (17:00)
Günzburg443 m11:04-3,9-4,2 (10:05)-2,8 (00:00)0,0 l/m²90%1011,76,4 km/h (2 Bft) W11,3 km/h (2 Bft) SO (10:20)
Horgenzell618 m11:050,00,0 (00:00)0,0 (00:00)0,0 l/m²0%1007,20,0 km/h (0 Bft) N0,0 km/h (0 Bft) N (00:00)
Hoßkirch632 m11:05-3,4-3,9 (00:05)-3,2 (03:40)0,0 l/m²95%1012,94,8 km/h (1 Bft) SW16,1 km/h (3 Bft) S-SW (03:50)
Isny, Am Dreifingerbach695 m11:05-4,1-4,8 (09:45)-3,7 (03:25)0,0 l/m²87%1013,28,0 km/h (2 Bft) O-SO9,7 km/h (2 Bft) S (04:45)
Isny, Weidachweg706 m11:05-2,9-4,6 (09:40)-2,6 (03:20)0,0 l/m²79%1014,34,8 km/h (1 Bft) S-SW14,5 km/h (3 Bft) W-SW (03:40)
Kappel-Grafenhausen163 m11:00-0,3-6,0 (01:20)-0,3 (11:00)0,0 l/m²93%1012,26,4 km/h (2 Bft) N12,9 km/h (3 Bft) N (12:45)
Kirchberg an der Iller584 m11:05-3,6-4,6 (03:05)-3,6 (14:50)0,0 l/m²88%1004,10,0 km/h (0 Bft) N6,9 km/h (2 Bft) O-SO (03:05)
Kißlegg-Staibshof709 m11:05-3,3-4,3 (08:35)-3,2 (10:45)0,0 l/m²90%1013,66,4 km/h (2 Bft) W-SW11,3 km/h (2 Bft) S-SW (04:15)
Kressbronn398 m11:06-1,2-1,9 (08:58)-1,2 (02:26)0,0 l/m²83%1012,89,7 km/h (2 Bft) O-SO9,7 km/h (2 Bft) O-SO (11:06)
Kreuzthal-Steinberg-Alpe930 m10:50-5,8-6,9 (09:40)-4,9 (00:00)0,0 l/m²100%1014,00,0 km/h (0 Bft) SO9,7 km/h (2 Bft) W-NW (00:30)
Kreuzthal-Steinberggipfel1040 m10:50-3,1-7,1 (07:50)-2,8 (10:50)-100%1014,05,4 km/h (1 Bft) S14,4 km/h (3 Bft) SW (03:30)
Kristberg im Montafon (AT)1425 m11:05-0,6-10,7 (08:10)-0,3 (10:55)0,0 l/m²50%1012,81,6 km/h (1 Bft) N6,4 km/h (2 Bft) N (04:30)
Laupheim500 m11:05-3,4-4,4 (05:05)-3,0 (00:00)0,0 l/m²90%1013,29,7 km/h (2 Bft) N14,5 km/h (3 Bft) SW (02:25)
Leutkirch-Heggelbach670 m11:05-2,1-4,0 (08:15)-2,0 (11:00)0,0 l/m²87%1012,50,0 km/h (0 Bft) S-SW4,8 km/h (1 Bft) W-SW (03:45)
Lindau-Insel420 m03:00-1,0-1,1 (07:35)-0,6 (13:25)0,0 l/m²86%1017,43,2 km/h (1 Bft) N8,0 km/h (2 Bft) N-NO (06:40)
Lindau-Stadt412 m11:05-0,1-3,7 (07:50)-0,1 (15:20)0,0 l/m²81%1013,54,8 km/h (1 Bft) SW9,7 km/h (2 Bft) SW (04:40)
Maierhöfen im Allgäu733 m11:10-2,2-5,7 (10:10)-2,2 (11:10)0,0 l/m²85%1013,43,2 km/h (1 Bft) S12,9 km/h (3 Bft) SO (08:35)
Maselheim-Sulmingen548 m11:05-3,7-4,3 (05:40)-3,5 (14:10)0,0 l/m²93%1015,09,7 km/h (2 Bft) S14,5 km/h (3 Bft) S (02:30)
Mietingen-Baltringen528 m11:05-3,8-4,3 (05:25)-3,2 (00:00)0,0 l/m²89%1015,79,7 km/h (2 Bft) S-SO14,5 km/h (3 Bft) SO (10:30)
Mindelheim-Apfeltrach620 m11:06-4,9-5,1 (09:29)-3,9 (00:00)0,0 l/m²94%1015,01,6 km/h (1 Bft) S-SO16,1 km/h (3 Bft) S (03:12)
Neresheim552 m11:00-5,8-6,5 (05:00)-5,6 (00:31)0,0 l/m²100%1010,87,6 km/h (2 Bft) S-SW9,0 km/h (2 Bft) S-SW (10:00)
Neukirch570 m11:05-2,6-3,2 (22:10)-2,2 (15:30)0,0 l/m²87%1013,66,4 km/h (2 Bft) NO8,0 km/h (2 Bft) O-NO (09:15)
Ochsenhausen, Birkenstraße613 m11:05-3,2-4,6 (02:35)-3,2 (14:05)0,0 l/m²90%1014,18,0 km/h (2 Bft) SO14,5 km/h (3 Bft) SO (02:30)
Ochsenhausen, Unt. Wiesen575 m11:05-3,4-5,1 (02:40)-3,4 (11:05)0,0 l/m²91%1015,18,0 km/h (2 Bft) SW16,1 km/h (3 Bft) SW (03:30)
Ostrach619 m11:05-2,3-2,7 (19:00)-1,9 (15:25)0,0 l/m²94%1012,28,0 km/h (2 Bft) S-SW12,9 km/h (3 Bft) S (04:30)
Ravensburg428 m11:05-0,9-1,4 (02:30)-0,8 (11:00)0,0 l/m²86%1012,86,4 km/h (2 Bft) O-NO11,3 km/h (2 Bft) N-NO (06:20)
Ravensburg-Wernsreute511 m11:05-2,2-2,6 (21:20)-2,1 (14:00)0,0 l/m²89%1015,73,2 km/h (1 Bft) W-NW16,1 km/h (3 Bft) N-NW (21:05)
Reichenbach an der Fils343 m11:05-1,7-4,5 (09:05)-1,7 (11:05)0,0 l/m²80%1015,60,0 km/h (0 Bft) SO32,2 km/h (5 Bft) O-NO (08:45)
Reinstetten559 m11:05-3,2-4,7 (02:55)-3,2 (11:05)0,0 l/m²92%1014,34,8 km/h (1 Bft) S-SW14,5 km/h (3 Bft) S-SO (02:10)
Riedlingen530 m11:05-2,4-3,8 (00:40)-2,4 (10:00)0,0 l/m²90%1013,411,3 km/h (2 Bft) S14,5 km/h (3 Bft) S-SW (10:30)
Schemmerhofen520 m11:05-2,9-3,8 (04:50)-2,8 (10:15)0,0 l/m²94%1013,26,4 km/h (2 Bft) SO12,9 km/h (3 Bft) S-SW (03:45)
Silbertal im Montafon (AT)884 m11:05-9,0-9,4 (06:50)-6,2 (00:00)0,0 l/m²87%1014,20,0 km/h (0 Bft) W-NW1,6 km/h (1 Bft) W-NW (00:10)
Tettnang466 m11:05-1,6-2,3 (00:00)-1,5 (11:00)0,0 l/m²85%1012,36,4 km/h (2 Bft) O8,0 km/h (2 Bft) O-NO (00:10)
Tuttlingen662 m11:05-4,9-5,0 (09:35)-4,0 (04:00)0,0 l/m²92%1013,33,2 km/h (1 Bft) O-NO9,7 km/h (2 Bft) O (10:25)
Ummendorf547 m11:05-3,4-4,3 (02:45)-3,3 (00:00)0,0 l/m²91%1014,59,7 km/h (2 Bft) W-SW14,5 km/h (3 Bft) SW (04:00)
Ummendorf-Fischbach558 m11:05-3,6-4,6 (02:20)-3,6 (11:00)0,0 l/m²90%1015,06,4 km/h (2 Bft) SW14,5 km/h (3 Bft) S-SO (02:20)
Waldburg707 m11:05-3,4-3,7 (00:25)-3,2 (10:30)0,0 l/m²92%1013,30,0 km/h (0 Bft) N8,0 km/h (2 Bft) N (10:40)
Waltenhofen im Allgäu720 m11:05-5,0-5,8 (09:30)-4,1 (00:00)0,0 l/m²89%1013,43,2 km/h (1 Bft) O-SO9,7 km/h (2 Bft) O-SO (02:55)
Weingarten500 m11:05-1,5-2,1 (09:45)-1,5 (07:55)0,0 l/m²87%1013,31,6 km/h (1 Bft) W11,3 km/h (2 Bft) S-SW (03:35)
Winterlingen785 m10:45-4,6-6,5 (01:15)-4,6 (10:45)0,0 l/m²98%1011,47,6 km/h (2 Bft) S10,8 km/h (2 Bft) W-SW (03:25)
'Wellenschnee' bei Breitenbach/Aichstetten
Fotograf: Josef Wagner, 15.01.2019

AKTUELL

Tornado
Bad Waldsee - Reute
13.06.2016

>> zum Video

Mit freundlicher Genehmigung von
Peter Stotz

  Wetterwarte Süd - Bad Schussenried | Dienstag, 22. Januar 2019 | 11:05 Uhr
 
aktuell
Minimum
Maximum
Durchschnitt
   Temperatur
-3,2 °C
-3,6 °C
(02:05 Uhr)
-3,1 °C
(00:00 Uhr)
-3,3 °C
   Windchill
-3,2 °C
-3,6 °C
(02:05 Uhr)
-3,1 °C
(00:00 Uhr)
-3,3 °C
   Luftfeuchtigkeit
95 %
93 %
(00:00 Uhr)
96 %
(05:10 Uhr)
95 %
  Taupunkt
-3,9 °C
-4,4 °C
(02:05 Uhr)
-3,7 °C
(05:15 Uhr)
-4,0 °C
  Luftdruck
1012,0 hPa
1011,9 hPa
(10:55 Uhr)
1018,4 hPa
(00:00 Uhr)
1014,8 hPa
  Wind
0,0 km/h
289 ° / W-NW
0,0 km/h
(00:05 Uhr)
9,7 km/h
(02:55 Uhr)
2,4 km/h
  Niederschlag
letzte Stunde: 0,0 l/m²
aktuelle Woche: 0,0 l/m²
 
heute: 0,0 l/m²
aktueller Monat: 53,4 l/m²
 Sonnenaufgang heute:
08:00 Uhr
 |   
Sonnenaufgang morgen:
07:59    23. Januar 2019
 Sonnenuntergang heute:
17:05 Uhr
 |   
Sonnenuntergang morgen:
17:06    23. Januar 2019
Die dargestellten Werte repräsentieren die Daten des akt. Tages!
 
wetterstationen
wetterstationen
- derzeit 73 Stationen
wetterstationen
wetterstationen
- kartographische Darstellung
niederschlagsdatenbank
niederschlagsstationen
- derzeit 103 Stationen
niederschlagsdatenbank
niederschlagsstationen
- kartographische Darstellung
webcams
interessante webcams
im Vorhersagegebiet
 
Mo. 7.30 Uhr - Di. 7.30 Uhr (MEZ)
1.Ulm0,0 l/m²
2.Füramoos0,0 l/m²
3.Herbertingen
Drosselweg
0,0 l/m²
4.Erlenmoos0,0 l/m²
5.Hüttisheim0,0 l/m²
 
Di. 22.01.2019 - 7.30 Uhr (MEZ)
1.Kreuzthal-Steinberg-Alpe101 cm
2.Isny53 cm
3.Leutkirch-Adrazhofen45 cm
4.Bad Wurzach-Seibranz39 cm
5.Leutkirch
Nachtigallenweg 28
30cm
6.Schelklingen-Gundershofen23 cm
7.Erlenmoos20 cm
8.Bad Waldsee-Haisterkirch16 cm
9.Eberhardzell
Lilienweg
16 cm
10.Horgenzell-Ringgenweiler8 cm
11.Mittelbiberach-Reute2 cm, durchbrochen
12.Öpfingen1cm
13.WolpertswendeReste
14.Hüttisheimleicht gezuckert
15.Bad Saulgau
Walserweg
Reste
16.Weingarten
Laurastraße
Reste
 
 besucherzahl
40.678.843

 
  treffpunkt & service

zugriffe:
insgesamt: 40.678.843
aktueller monat: 351.924
heute: 3.778
momentan online: 55
 
 
monatshöchstwert: 653.625
vorheriger monat: 400.931
gestern: 15.967
tageshöchstwert: 45.129
 
wetterwarte süd
 
konradstraße 3
info@wetterwarte-sued.com
roland roth
 
88427 bad schussenried